createdAt,value
2022-12-18T00:00:34.506Z,163.50
2022-12-18T00:01:34.730Z,133.40
2022-12-18T00:02:34.967Z,220.60
2022-12-18T00:03:35.229Z,156.70
2022-12-18T00:04:35.144Z,149.50
2022-12-18T00:05:35.337Z,153.70
2022-12-18T00:06:35.596Z,207.80
2022-12-18T00:07:35.681Z,161.10
2022-12-18T00:08:35.895Z,194.70
2022-12-18T00:09:39.343Z,140.30
2022-12-18T00:10:36.293Z,175.80
2022-12-18T00:11:36.501Z,143.00
2022-12-18T00:12:36.736Z,163.90
2022-12-18T00:13:37.307Z,144.00
2022-12-18T00:14:37.189Z,139.60
2022-12-18T00:15:37.407Z,136.60
2022-12-18T00:16:37.642Z,174.40
2022-12-18T00:17:37.888Z,150.30
2022-12-18T00:18:38.512Z,163.10
2022-12-18T00:19:38.343Z,130.30
2022-12-18T00:20:38.563Z,120.50
2022-12-18T00:21:38.776Z,152.00
2022-12-18T00:22:39.012Z,223.50
2022-12-18T00:23:39.679Z,138.40
2022-12-18T00:24:39.372Z,132.30
2022-12-18T00:25:39.576Z,225.80
2022-12-18T00:26:39.783Z,156.60
2022-12-18T00:27:40.046Z,132.30
2022-12-18T00:28:40.260Z,118.70
2022-12-18T00:29:40.480Z,128.20
2022-12-18T00:30:40.691Z,152.90
2022-12-18T00:31:40.976Z,133.70
2022-12-18T00:32:41.055Z,125.80
2022-12-18T00:33:41.664Z,141.60
2022-12-18T00:34:41.441Z,131.60
2022-12-18T00:35:41.661Z,139.30
2022-12-18T00:36:41.861Z,156.40
2022-12-18T00:37:42.086Z,131.40
2022-12-18T00:38:42.286Z,129.60
2022-12-18T00:39:42.506Z,156.10
2022-12-18T00:40:42.708Z,150.30
2022-12-18T00:41:42.923Z,202.20
2022-12-18T00:42:43.148Z,138.90
2022-12-18T00:43:43.357Z,134.90
2022-12-18T00:44:43.557Z,132.90
2022-12-18T00:45:43.785Z,138.10
2022-12-18T00:46:43.935Z,126.50
2022-12-18T00:47:44.178Z,127.10
2022-12-18T00:48:44.302Z,133.60
2022-12-18T00:49:44.469Z,134.30
2022-12-18T00:50:44.683Z,150.60
2022-12-18T00:51:44.904Z,140.50
2022-12-18T00:52:45.124Z,143.60
2022-12-18T00:53:45.342Z,118.80
2022-12-18T00:54:45.554Z,130.50
2022-12-18T00:55:45.766Z,131.90
2022-12-18T00:56:49.210Z,159.60
2022-12-18T00:57:46.182Z,128.20
2022-12-18T00:58:46.387Z,131.30
2022-12-18T00:59:46.613Z,128.20
2022-12-18T01:00:46.858Z,143.50
2022-12-18T01:01:47.528Z,126.20
2022-12-18T01:02:47.439Z,123.60
2022-12-18T01:03:47.468Z,131.40
2022-12-18T01:04:47.687Z,128.80
2022-12-18T01:05:47.896Z,130.20
2022-12-18T01:06:48.164Z,127.70
2022-12-18T01:07:48.282Z,133.10
2022-12-18T01:08:48.481Z,135.80
2022-12-18T01:09:48.713Z,129.70
2022-12-18T01:10:48.918Z,129.30
2022-12-18T01:11:49.145Z,133.20
2022-12-18T01:12:49.390Z,124.20
2022-12-18T01:13:49.619Z,131.20
2022-12-18T01:14:49.832Z,127.40
2022-12-18T01:15:50.050Z,131.20
2022-12-18T01:16:50.298Z,130.50
2022-12-18T01:17:50.516Z,131.40
2022-12-18T01:18:50.721Z,130.00
2022-12-18T01:19:50.947Z,133.40
2022-12-18T01:20:51.169Z,135.00
2022-12-18T01:21:51.388Z,137.40
2022-12-18T01:22:51.632Z,126.90
2022-12-18T01:23:51.744Z,114.00
2022-12-18T01:24:51.965Z,152.60
2022-12-18T01:25:52.184Z,225.30
2022-12-18T01:26:52.394Z,273.90
2022-12-18T01:27:52.622Z,143.10
2022-12-18T01:28:52.828Z,217.20
2022-12-18T01:29:53.060Z,137.20
2022-12-18T01:30:53.282Z,223.60
2022-12-18T01:31:53.544Z,172.90
2022-12-18T01:32:53.678Z,208.20
2022-12-18T01:33:53.899Z,172.80
2022-12-18T01:34:54.117Z,210.90
2022-12-18T01:35:54.330Z,186.80
2022-12-18T01:36:54.538Z,138.90
2022-12-18T01:37:54.787Z,273.80
2022-12-18T01:38:54.889Z,137.80
2022-12-18T01:39:55.109Z,130.10
2022-12-18T01:40:55.318Z,132.10
2022-12-18T01:41:55.559Z,144.10
2022-12-18T01:42:55.780Z,128.20
2022-12-18T01:43:56.000Z,140.30
2022-12-18T01:44:56.213Z,137.20
2022-12-18T01:45:56.495Z,146.90
2022-12-18T01:46:56.582Z,157.50
2022-12-18T01:47:57.341Z,207.30
2022-12-18T01:48:57.032Z,132.60
2022-12-18T01:49:57.225Z,133.20
2022-12-18T01:50:57.433Z,162.90
2022-12-18T01:51:57.665Z,135.60
2022-12-18T01:52:57.931Z,132.30
2022-12-18T01:53:58.041Z,138.30
2022-12-18T01:54:58.245Z,182.60
2022-12-18T01:55:58.473Z,141.10
2022-12-18T01:56:58.684Z,143.50
2022-12-18T01:57:58.928Z,135.30
2022-12-18T01:58:59.135Z,133.70
2022-12-18T01:59:59.362Z,130.40
2022-12-18T02:00:59.630Z,128.60
2022-12-18T02:01:59.950Z,133.50
2022-12-18T02:02:59.952Z,125.40
2022-12-18T02:04:00.079Z,139.70
2022-12-18T02:05:00.287Z,157.00
2022-12-18T02:06:00.515Z,117.90
2022-12-18T02:07:00.732Z,127.00
2022-12-18T02:08:00.970Z,115.90
2022-12-18T02:09:01.176Z,115.50
2022-12-18T02:10:01.378Z,118.90
2022-12-18T02:11:01.594Z,116.40
2022-12-18T02:12:01.803Z,120.90
2022-12-18T02:13:02.015Z,119.30
2022-12-18T02:14:02.232Z,112.80
2022-12-18T02:15:02.386Z,134.90
2022-12-18T02:16:02.606Z,122.60
2022-12-18T02:17:02.876Z,123.00
2022-12-18T02:18:02.990Z,121.80
2022-12-18T02:19:03.202Z,127.00
2022-12-18T02:20:03.431Z,121.00
2022-12-18T02:21:03.635Z,136.20
2022-12-18T02:22:03.851Z,129.80
2022-12-18T02:23:04.085Z,122.90
2022-12-18T02:24:04.299Z,136.30
2022-12-18T02:25:04.516Z,151.70
2022-12-18T02:26:04.732Z,134.80
2022-12-18T02:27:04.961Z,119.10
2022-12-18T02:28:05.187Z,125.80
2022-12-18T02:29:05.394Z,118.10
2022-12-18T02:30:05.617Z,131.20
2022-12-18T02:31:05.867Z,123.60
2022-12-18T02:32:05.982Z,120.70
2022-12-18T02:33:06.210Z,115.10
2022-12-18T02:34:06.364Z,121.00
2022-12-18T02:35:06.571Z,117.70
2022-12-18T02:36:06.778Z,120.90
2022-12-18T02:37:06.987Z,117.90
2022-12-18T02:38:07.231Z,116.90
2022-12-18T02:39:07.437Z,112.20
2022-12-18T02:40:07.668Z,114.00
2022-12-18T02:41:07.902Z,108.70
2022-12-18T02:42:08.120Z,110.70
2022-12-18T02:43:08.339Z,105.00
2022-12-18T02:44:08.567Z,107.70
2022-12-18T02:45:08.779Z,104.40
2022-12-18T02:46:08.970Z,109.90
2022-12-18T02:47:09.159Z,118.40
2022-12-18T02:48:09.382Z,115.90
2022-12-18T02:49:09.598Z,111.20
2022-12-18T02:50:09.809Z,118.10
2022-12-18T02:51:10.010Z,115.30
2022-12-18T02:52:10.229Z,108.20
2022-12-18T02:53:10.449Z,119.60
2022-12-18T02:54:10.670Z,112.00
2022-12-18T02:55:10.874Z,109.50
2022-12-18T02:56:11.080Z,110.60
2022-12-18T02:57:11.284Z,111.30
2022-12-18T02:58:11.507Z,117.60
2022-12-18T02:59:11.717Z,113.40
2022-12-18T03:00:11.932Z,117.30
2022-12-18T03:01:12.177Z,112.70
2022-12-18T03:02:12.593Z,116.50
2022-12-18T03:03:12.545Z,112.90
2022-12-18T03:04:12.681Z,118.60
2022-12-18T03:05:12.880Z,127.40
2022-12-18T03:06:13.110Z,173.90
2022-12-18T03:07:13.339Z,118.60
2022-12-18T03:08:13.568Z,117.50
2022-12-18T03:09:13.686Z,133.80
2022-12-18T03:10:13.910Z,127.60
2022-12-18T03:11:14.117Z,119.10
2022-12-18T03:12:14.371Z,131.50
2022-12-18T03:13:14.487Z,123.20
2022-12-18T03:14:14.715Z,126.20
2022-12-18T03:15:17.764Z,123.40
2022-12-18T03:16:15.186Z,122.40
2022-12-18T03:17:15.327Z,123.40
2022-12-18T03:18:15.563Z,139.40
2022-12-18T03:19:15.769Z,124.20
2022-12-18T03:20:16.004Z,121.00
2022-12-18T03:21:16.214Z,118.90
2022-12-18T03:22:16.431Z,124.90
2022-12-18T03:23:16.652Z,129.00
2022-12-18T03:24:16.873Z,117.70
2022-12-18T03:25:17.082Z,128.40
2022-12-18T03:26:17.307Z,123.30
2022-12-18T03:27:17.522Z,117.40
2022-12-18T03:28:17.754Z,126.60
2022-12-18T03:29:17.957Z,129.00
2022-12-18T03:30:18.199Z,122.50
2022-12-18T03:31:18.452Z,128.00
2022-12-18T03:32:18.663Z,131.20
2022-12-18T03:33:18.877Z,130.60
2022-12-18T03:34:19.106Z,127.80
2022-12-18T03:35:19.319Z,123.30
2022-12-18T03:36:19.547Z,126.80
2022-12-18T03:37:19.765Z,141.00
2022-12-18T03:38:19.987Z,132.70
2022-12-18T03:39:20.206Z,140.50
2022-12-18T03:40:20.429Z,135.80
2022-12-18T03:41:20.645Z,151.40
2022-12-18T03:42:20.874Z,148.10
2022-12-18T03:43:21.083Z,129.00
2022-12-18T03:44:21.315Z,141.90
2022-12-18T03:45:21.531Z,130.40
2022-12-18T03:46:21.824Z,132.50
2022-12-18T03:47:21.979Z,126.20
2022-12-18T03:48:22.212Z,133.30
2022-12-18T03:49:22.435Z,131.60
2022-12-18T03:50:22.669Z,135.70
2022-12-18T03:51:22.899Z,134.60
2022-12-18T03:52:23.112Z,128.30
2022-12-18T03:53:23.330Z,131.80
2022-12-18T03:54:23.559Z,137.10
2022-12-18T03:55:23.778Z,173.30
2022-12-18T03:56:24.011Z,153.80
2022-12-18T03:57:24.237Z,145.50
2022-12-18T03:58:24.462Z,134.70
2022-12-18T03:59:24.677Z,212.00
2022-12-18T04:00:24.903Z,136.70
2022-12-18T04:01:25.222Z,131.70
2022-12-18T04:02:25.511Z,131.00
2022-12-18T04:03:26.808Z,142.60
2022-12-18T04:04:25.790Z,143.30
2022-12-18T04:05:25.994Z,150.30
2022-12-18T04:06:26.229Z,149.90
2022-12-18T04:07:26.448Z,170.50
2022-12-18T04:08:26.682Z,223.30
2022-12-18T04:09:26.900Z,162.60
2022-12-18T04:10:27.132Z,167.40
2022-12-18T04:11:27.341Z,222.70
2022-12-18T04:12:27.560Z,243.50
2022-12-18T04:13:27.784Z,199.60
2022-12-18T04:14:34.922Z,172.00
2022-12-18T04:15:30.751Z,222.20
2022-12-18T04:16:28.270Z,218.10
2022-12-18T04:17:28.489Z,250.00
2022-12-18T04:18:28.737Z,180.90
2022-12-18T04:19:28.844Z,183.50
2022-12-18T04:20:29.086Z,178.50
2022-12-18T04:21:29.307Z,174.60
2022-12-18T04:22:29.528Z,193.10
2022-12-18T04:23:29.766Z,180.00
2022-12-18T04:24:29.992Z,195.60
2022-12-18T04:25:30.210Z,182.70
2022-12-18T04:26:30.450Z,174.90
2022-12-18T04:27:30.660Z,187.90
2022-12-18T04:28:30.894Z,186.30
2022-12-18T04:29:31.109Z,181.00
2022-12-18T04:30:31.327Z,175.00
2022-12-18T04:31:31.565Z,171.40
2022-12-18T04:32:31.767Z,200.20
2022-12-18T04:33:32.006Z,179.60
2022-12-18T04:34:32.221Z,195.20
2022-12-18T04:35:32.459Z,190.00
2022-12-18T04:36:32.672Z,195.10
2022-12-18T04:37:32.924Z,202.80
2022-12-18T04:38:33.044Z,203.60
2022-12-18T04:39:33.261Z,188.00
2022-12-18T04:40:33.474Z,190.20
2022-12-18T04:41:33.701Z,207.70
2022-12-18T04:42:33.940Z,197.80
2022-12-18T04:43:34.068Z,193.30
2022-12-18T04:44:34.281Z,190.80
2022-12-18T04:45:34.507Z,190.90
2022-12-18T04:46:34.768Z,188.40
2022-12-18T04:47:34.885Z,207.30
2022-12-18T04:48:35.105Z,190.10
2022-12-18T04:49:35.334Z,208.40
2022-12-18T04:50:35.551Z,202.90
2022-12-18T04:51:35.785Z,202.00
2022-12-18T04:52:36.002Z,209.00
2022-12-18T04:53:36.428Z,199.90
2022-12-18T04:54:36.393Z,206.10
2022-12-18T04:55:36.614Z,199.10
2022-12-18T04:56:36.821Z,195.40
2022-12-18T04:57:37.046Z,202.40
2022-12-18T04:58:37.269Z,200.10
2022-12-18T04:59:37.491Z,201.30
2022-12-18T05:00:37.714Z,212.50
2022-12-18T05:01:38.043Z,212.10
2022-12-18T05:02:38.199Z,218.10
2022-12-18T05:03:38.770Z,215.20
2022-12-18T05:04:38.463Z,207.60
2022-12-18T05:05:38.653Z,239.80
2022-12-18T05:06:38.874Z,200.70
2022-12-18T05:07:39.098Z,236.60
2022-12-18T05:08:39.341Z,207.70
2022-12-18T05:09:39.568Z,201.50
2022-12-18T05:10:39.783Z,199.60
2022-12-18T05:11:40.016Z,210.80
2022-12-18T05:12:40.232Z,194.00
2022-12-18T05:13:41.047Z,188.00
2022-12-18T05:14:40.596Z,203.70
2022-12-18T05:15:40.845Z,210.00
2022-12-18T05:16:41.047Z,199.00
2022-12-18T05:17:41.273Z,218.00
2022-12-18T05:18:41.502Z,202.50
2022-12-18T05:19:41.729Z,223.50
2022-12-18T05:20:41.936Z,213.20
2022-12-18T05:21:42.169Z,196.70
2022-12-18T05:22:42.321Z,202.60
2022-12-18T05:23:43.022Z,202.00
2022-12-18T05:24:42.704Z,198.00
2022-12-18T05:25:42.939Z,199.80
2022-12-18T05:26:43.170Z,197.90
2022-12-18T05:27:43.784Z,211.50
2022-12-18T05:28:43.578Z,198.90
2022-12-18T05:29:43.821Z,201.00
2022-12-18T05:30:44.052Z,201.40
2022-12-18T05:31:44.320Z,195.40
2022-12-18T05:32:44.495Z,203.50
2022-12-18T05:33:44.740Z,200.00
2022-12-18T05:34:44.966Z,201.70
2022-12-18T05:35:45.195Z,210.00
2022-12-18T05:36:45.420Z,212.00
2022-12-18T05:37:45.660Z,206.10
2022-12-18T05:38:45.884Z,216.20
2022-12-18T05:39:46.124Z,221.30
2022-12-18T05:40:46.336Z,205.60
2022-12-18T05:41:46.585Z,224.80
2022-12-18T05:42:46.783Z,217.40
2022-12-18T05:43:47.031Z,227.00
2022-12-18T05:44:47.265Z,210.80
2022-12-18T05:45:47.488Z,193.90
2022-12-18T05:46:47.751Z,203.10
2022-12-18T05:47:47.949Z,205.40
2022-12-18T05:48:48.189Z,201.10
2022-12-18T05:49:48.429Z,206.60
2022-12-18T05:50:48.652Z,200.70
2022-12-18T05:51:48.919Z,199.00
2022-12-18T05:52:49.122Z,200.80
2022-12-18T05:53:49.377Z,196.50
2022-12-18T05:54:49.515Z,198.80
2022-12-18T05:55:49.638Z,197.80
2022-12-18T05:56:49.862Z,193.40
2022-12-18T05:57:50.094Z,191.20
2022-12-18T05:58:50.355Z,191.60
2022-12-18T05:59:50.475Z,190.10
2022-12-18T06:00:50.685Z,181.50
2022-12-18T06:01:50.988Z,181.90
2022-12-18T06:02:51.208Z,176.70
2022-12-18T06:03:51.325Z,179.80
2022-12-18T06:04:51.446Z,178.00
2022-12-18T06:05:51.680Z,177.60
2022-12-18T06:06:51.901Z,171.30
2022-12-18T06:07:52.135Z,167.40
2022-12-18T06:08:52.300Z,163.10
2022-12-18T06:09:52.440Z,175.30
2022-12-18T06:10:52.672Z,176.90
2022-12-18T06:11:52.909Z,176.60
2022-12-18T06:12:53.138Z,179.50
2022-12-18T06:13:57.925Z,171.50
2022-12-18T06:14:54.557Z,183.00
2022-12-18T06:15:53.839Z,172.80
2022-12-18T06:16:53.918Z,198.90
2022-12-18T06:17:54.148Z,201.90
2022-12-18T06:18:54.457Z,216.40
2022-12-18T06:19:54.566Z,209.20
2022-12-18T06:20:54.785Z,203.50
2022-12-18T06:21:55.023Z,198.70
2022-12-18T06:22:55.242Z,213.30
2022-12-18T06:23:55.502Z,208.70
2022-12-18T06:24:55.612Z,213.10
2022-12-18T06:25:55.868Z,198.00
2022-12-18T06:26:56.084Z,201.50
2022-12-18T06:27:56.346Z,202.30
2022-12-18T06:28:56.592Z,211.90
2022-12-18T06:29:56.711Z,205.40
2022-12-18T06:30:56.935Z,209.10
2022-12-18T06:31:57.183Z,219.00
2022-12-18T06:32:57.398Z,200.60
2022-12-18T06:33:57.651Z,205.50
2022-12-18T06:34:57.778Z,202.40
2022-12-18T06:36:01.118Z,200.10
2022-12-18T06:36:58.180Z,195.50
2022-12-18T06:37:58.408Z,184.90
2022-12-18T06:38:58.640Z,181.30
2022-12-18T06:39:58.877Z,177.60
2022-12-18T06:40:59.110Z,171.10
2022-12-18T06:41:59.346Z,173.50
2022-12-18T06:42:59.588Z,172.10
2022-12-18T06:44:00.316Z,169.50
2022-12-18T06:45:00.023Z,176.20
2022-12-18T06:46:00.337Z,163.80
2022-12-18T06:47:00.497Z,177.60
2022-12-18T06:48:00.725Z,169.00
2022-12-18T06:49:00.971Z,166.70
2022-12-18T06:50:01.217Z,167.40
2022-12-18T06:51:01.354Z,165.00
2022-12-18T06:52:01.587Z,169.00
2022-12-18T06:53:01.742Z,170.10
2022-12-18T06:54:01.924Z,173.30
2022-12-18T06:55:02.027Z,174.70
2022-12-18T06:56:07.825Z,177.20
2022-12-18T06:57:03.423Z,183.10
2022-12-18T06:58:02.649Z,183.10
2022-12-18T06:59:02.898Z,173.50
2022-12-18T07:00:03.133Z,186.40
2022-12-18T07:01:03.406Z,182.60
2022-12-18T07:02:03.653Z,201.40
2022-12-18T07:03:03.747Z,180.90
2022-12-18T07:04:03.976Z,184.40
2022-12-18T07:05:10.299Z,189.40
2022-12-18T07:06:05.256Z,195.60
2022-12-18T07:07:04.479Z,190.30
2022-12-18T07:08:04.719Z,192.90
2022-12-18T07:09:04.954Z,191.20
2022-12-18T07:10:05.218Z,190.80
2022-12-18T07:11:05.318Z,192.80
2022-12-18T07:12:05.543Z,189.50
2022-12-18T07:13:05.752Z,194.40
2022-12-18T07:14:06.000Z,191.10
2022-12-18T07:15:06.115Z,181.10
2022-12-18T07:16:10.898Z,186.30
2022-12-18T07:17:07.549Z,181.40
2022-12-18T07:18:06.750Z,196.60
2022-12-18T07:19:07.024Z,192.10
2022-12-18T07:20:07.146Z,191.10
2022-12-18T07:21:07.365Z,191.30
2022-12-18T07:22:07.588Z,202.30
2022-12-18T07:23:07.817Z,183.20
2022-12-18T07:24:08.068Z,183.40
2022-12-18T07:25:08.178Z,182.90
2022-12-18T07:26:08.422Z,195.70
2022-12-18T07:27:08.551Z,173.10
2022-12-18T07:28:11.692Z,210.20
2022-12-18T07:29:09.933Z,172.40
2022-12-18T07:30:09.036Z,201.50
2022-12-18T07:31:09.246Z,190.30
2022-12-18T07:32:09.539Z,180.00
2022-12-18T07:33:09.648Z,173.30
2022-12-18T07:34:09.895Z,177.90
2022-12-18T07:35:10.003Z,214.40
2022-12-18T07:36:10.243Z,175.20
2022-12-18T07:37:10.462Z,201.90
2022-12-18T07:38:10.691Z,162.60
2022-12-18T07:39:10.923Z,157.70
2022-12-18T07:40:11.186Z,157.90
2022-12-18T07:41:11.323Z,152.50
2022-12-18T07:42:11.443Z,147.70
2022-12-18T07:43:11.663Z,153.30
2022-12-18T07:44:11.913Z,142.70
2022-12-18T07:45:12.086Z,156.00
2022-12-18T07:46:12.421Z,155.70
2022-12-18T07:47:12.516Z,144.10
2022-12-18T07:48:12.519Z,149.20
2022-12-18T07:49:12.636Z,160.80
2022-12-18T07:50:12.869Z,146.60
2022-12-18T07:51:13.095Z,137.50
2022-12-18T07:52:13.328Z,134.00
2022-12-18T07:53:13.543Z,137.80
2022-12-18T07:54:13.764Z,135.10
2022-12-18T07:55:13.989Z,150.40
2022-12-18T07:56:31.127Z,137.60
2022-12-18T07:57:41.358Z,129.70
2022-12-18T07:58:15.582Z,137.40
2022-12-18T07:59:14.809Z,133.80
2022-12-18T08:00:15.082Z,126.00
2022-12-18T08:01:15.274Z,131.20
2022-12-18T08:02:15.581Z,130.10
2022-12-18T08:03:15.665Z,128.70
2022-12-18T08:04:15.868Z,138.80
2022-12-18T08:05:15.967Z,133.90
2022-12-18T08:06:16.200Z,138.90
2022-12-18T08:07:16.316Z,138.10
2022-12-18T08:08:16.577Z,138.70
2022-12-18T08:09:16.697Z,139.00
2022-12-18T08:10:16.934Z,140.40
2022-12-18T08:11:17.170Z,150.90
2022-12-18T08:12:17.397Z,144.90
2022-12-18T08:13:17.617Z,143.20
2022-12-18T08:14:17.854Z,153.90
2022-12-18T08:15:18.084Z,146.10
2022-12-18T08:16:18.440Z,154.30
2022-12-18T08:17:18.453Z,142.50
2022-12-18T08:18:18.688Z,141.90
2022-12-18T08:19:18.919Z,139.20
2022-12-18T08:20:19.167Z,139.40
2022-12-18T08:21:19.281Z,131.50
2022-12-18T08:22:19.429Z,138.70
2022-12-18T08:23:19.666Z,136.10
2022-12-18T08:24:19.896Z,129.90
2022-12-18T08:25:20.105Z,127.50
2022-12-18T08:26:20.978Z,133.80
2022-12-18T08:27:29.370Z,134.70
2022-12-18T08:28:21.652Z,141.80
2022-12-18T08:29:21.747Z,138.40
2022-12-18T08:30:21.005Z,141.20
2022-12-18T08:31:21.292Z,144.40
2022-12-18T08:32:21.416Z,144.80
2022-12-18T08:33:21.508Z,146.20
2022-12-18T08:34:21.738Z,143.90
2022-12-18T08:35:21.963Z,146.90
2022-12-18T08:36:22.184Z,150.50
2022-12-18T08:37:22.393Z,145.80
2022-12-18T08:38:22.605Z,147.40
2022-12-18T08:39:22.821Z,145.60
2022-12-18T08:40:23.044Z,145.10
2022-12-18T08:41:23.284Z,140.60
2022-12-18T08:42:23.386Z,144.30
2022-12-18T08:43:23.620Z,136.60
2022-12-18T08:44:23.846Z,232.90
2022-12-18T08:45:24.075Z,153.40
2022-12-18T08:46:24.324Z,151.00
2022-12-18T08:47:24.526Z,141.80
2022-12-18T08:48:24.748Z,166.70
2022-12-18T08:49:24.974Z,145.90
2022-12-18T08:50:25.239Z,138.30
2022-12-18T08:51:25.381Z,149.80
2022-12-18T08:52:25.494Z,141.30
2022-12-18T08:53:25.707Z,138.80
2022-12-18T08:54:25.952Z,134.30
2022-12-18T08:55:26.189Z,143.40
2022-12-18T08:56:26.308Z,127.50
2022-12-18T08:57:26.448Z,134.90
2022-12-18T08:58:26.673Z,124.30
2022-12-18T08:59:26.897Z,132.00
2022-12-18T09:00:27.124Z,131.90
2022-12-18T09:01:27.432Z,125.80
2022-12-18T09:02:27.707Z,127.30
2022-12-18T09:03:27.776Z,130.90
2022-12-18T09:04:27.946Z,126.40
2022-12-18T09:05:28.215Z,137.40
2022-12-18T09:06:28.401Z,154.70
2022-12-18T09:07:28.528Z,142.30
2022-12-18T09:08:28.748Z,128.70
2022-12-18T09:09:28.977Z,130.50
2022-12-18T09:10:29.182Z,144.70
2022-12-18T09:11:29.402Z,132.60
2022-12-18T09:12:29.621Z,133.30
2022-12-18T09:13:29.720Z,142.30
2022-12-18T09:14:29.942Z,143.30
2022-12-18T09:15:30.151Z,140.40
2022-12-18T09:16:32.492Z,146.90
2022-12-18T09:17:30.638Z,143.40
2022-12-18T09:18:30.732Z,138.00
2022-12-18T09:19:30.941Z,127.80
2022-12-18T09:20:31.137Z,182.90
2022-12-18T09:21:31.351Z,138.70
2022-12-18T09:22:31.514Z,159.00
2022-12-18T09:23:31.719Z,149.10
2022-12-18T09:24:31.924Z,132.80
2022-12-18T09:25:32.146Z,168.20
2022-12-18T09:26:32.354Z,174.40
2022-12-18T09:27:32.564Z,146.60
2022-12-18T09:28:32.774Z,124.80
2022-12-18T09:29:32.985Z,149.00
2022-12-18T09:30:33.198Z,126.60
2022-12-18T09:31:33.361Z,131.00
2022-12-18T09:32:33.562Z,139.50
2022-12-18T09:33:33.783Z,131.80
2022-12-18T09:34:34.011Z,149.40
2022-12-18T09:35:34.232Z,140.80
2022-12-18T09:36:34.462Z,156.00
2022-12-18T09:37:34.671Z,127.90
2022-12-18T09:38:34.865Z,146.90
2022-12-18T09:39:35.077Z,126.10
2022-12-18T09:40:35.288Z,133.80
2022-12-18T09:41:35.515Z,123.10
2022-12-18T09:42:35.741Z,125.40
2022-12-18T09:43:35.959Z,124.90
2022-12-18T09:44:43.064Z,119.40
2022-12-18T09:45:37.354Z,141.60
2022-12-18T09:46:36.533Z,116.80
2022-12-18T09:47:36.738Z,124.80
2022-12-18T09:48:37.165Z,145.60
2022-12-18T09:49:37.170Z,125.10
2022-12-18T09:50:37.390Z,127.00
2022-12-18T09:51:37.618Z,126.30
2022-12-18T09:52:37.832Z,133.90
2022-12-18T09:53:38.058Z,132.50
2022-12-18T09:54:38.290Z,126.70
2022-12-18T09:55:38.415Z,128.50
2022-12-18T09:56:38.634Z,138.20
2022-12-18T09:57:38.861Z,140.20
2022-12-18T09:58:39.472Z,139.70
2022-12-18T09:59:39.265Z,135.30
2022-12-18T10:00:39.489Z,137.90
2022-12-18T10:01:44.360Z,129.90
2022-12-18T10:02:41.033Z,126.40
2022-12-18T10:03:40.088Z,133.20
2022-12-18T10:04:40.335Z,130.90
2022-12-18T10:05:40.435Z,132.40
2022-12-18T10:06:40.649Z,131.50
2022-12-18T10:07:40.876Z,133.10
2022-12-18T10:08:41.529Z,131.50
2022-12-18T10:09:41.228Z,122.50
2022-12-18T10:10:41.450Z,122.20
2022-12-18T10:11:41.678Z,116.00
2022-12-18T10:12:41.886Z,113.20
2022-12-18T10:13:42.089Z,123.70
2022-12-18T10:14:49.245Z,117.30
2022-12-18T10:15:42.479Z,117.20
2022-12-18T10:16:42.571Z,113.00
2022-12-18T10:17:42.790Z,116.40
2022-12-18T10:18:43.250Z,114.40
2022-12-18T10:19:43.165Z,113.10
2022-12-18T10:20:43.374Z,114.90
2022-12-18T10:21:43.589Z,112.80
2022-12-18T10:22:43.793Z,112.10
2022-12-18T10:23:48.193Z,114.60
2022-12-18T10:24:44.182Z,108.90
2022-12-18T10:25:44.427Z,110.20
2022-12-18T10:26:44.511Z,109.20
2022-12-18T10:27:44.711Z,105.50
2022-12-18T10:28:45.123Z,115.00
2022-12-18T10:29:45.098Z,105.70
2022-12-18T10:30:45.414Z,118.60
2022-12-18T10:31:45.526Z,114.40
2022-12-18T10:32:45.718Z,115.50
2022-12-18T10:33:46.896Z,116.40
2022-12-18T10:34:46.131Z,114.60
2022-12-18T10:35:46.251Z,123.00
2022-12-18T10:36:46.346Z,124.80
2022-12-18T10:37:46.572Z,121.00
2022-12-18T10:38:46.668Z,119.00
2022-12-18T10:39:46.886Z,117.20
2022-12-18T10:40:47.123Z,117.20
2022-12-18T10:41:47.271Z,119.80
2022-12-18T10:42:47.371Z,113.50
2022-12-18T10:43:47.586Z,114.50
2022-12-18T10:44:47.790Z,119.50
2022-12-18T10:45:48.038Z,118.30
2022-12-18T10:46:48.230Z,120.40
2022-12-18T10:47:48.319Z,117.80
2022-12-18T10:48:48.532Z,123.40
2022-12-18T10:49:48.755Z,119.30
2022-12-18T10:51:10.209Z,120.90
2022-12-18T10:51:50.037Z,115.80
2022-12-18T10:52:49.215Z,112.60
2022-12-18T10:53:49.363Z,114.30
2022-12-18T10:54:49.534Z,119.30
2022-12-18T10:55:49.763Z,115.90
2022-12-18T10:56:49.962Z,118.60
2022-12-18T10:57:50.171Z,116.40
2022-12-18T10:58:50.374Z,115.50
2022-12-18T10:59:50.595Z,116.40
2022-12-18T11:00:50.831Z,113.40
2022-12-18T11:01:51.016Z,108.30
2022-12-18T11:02:51.361Z,110.80
2022-12-18T11:03:51.373Z,109.80
2022-12-18T11:04:51.534Z,106.90
2022-12-18T11:05:51.759Z,109.00
2022-12-18T11:06:51.955Z,114.00
2022-12-18T11:07:52.155Z,103.50
2022-12-18T11:08:52.341Z,106.10
2022-12-18T11:09:52.546Z,106.60
2022-12-18T11:10:52.739Z,105.50
2022-12-18T11:11:52.957Z,104.00
2022-12-18T11:12:53.145Z,111.00
2022-12-18T11:13:53.345Z,104.90
2022-12-18T11:14:53.536Z,103.80
2022-12-18T11:15:53.803Z,114.20
2022-12-18T11:17:54.992Z,112.40
2022-12-18T11:18:54.190Z,116.80
2022-12-18T11:19:54.423Z,110.50
2022-12-18T11:20:58.507Z,117.00
2022-12-18T11:21:54.740Z,113.70
2022-12-18T11:22:54.933Z,118.30
2022-12-18T11:23:55.157Z,117.20
2022-12-18T11:25:22.821Z,117.80
2022-12-18T11:25:56.397Z,117.60
2022-12-18T11:26:59.679Z,115.10
2022-12-18T11:27:55.729Z,117.20
2022-12-18T11:28:55.929Z,116.00
2022-12-18T11:29:56.139Z,112.80
2022-12-18T11:30:56.402Z,111.60
2022-12-18T11:31:56.456Z,112.20
2022-12-18T11:32:56.660Z,111.60
2022-12-18T11:34:26.862Z,112.80
2022-12-18T11:34:59.270Z,119.30
2022-12-18T11:35:57.135Z,115.60
2022-12-18T11:36:57.329Z,112.00
2022-12-18T11:37:57.536Z,115.40
2022-12-18T11:38:57.726Z,120.20
2022-12-18T11:39:57.932Z,118.50
2022-12-18T11:40:58.131Z,119.60
2022-12-18T11:41:58.327Z,117.80
2022-12-18T11:42:58.522Z,119.30
2022-12-18T11:43:58.744Z,118.40
2022-12-18T11:44:58.951Z,122.00
2022-12-18T11:45:59.162Z,121.30
2022-12-18T11:46:59.428Z,122.80
2022-12-18T11:47:59.512Z,120.80
2022-12-18T11:48:59.692Z,123.50
2022-12-18T11:49:59.895Z,125.40
2022-12-18T11:51:00.111Z,112.60
2022-12-18T11:52:00.304Z,119.90
2022-12-18T11:53:05.547Z,117.00
2022-12-18T11:54:01.646Z,117.30
2022-12-18T11:55:00.843Z,116.10
2022-12-18T11:56:01.094Z,116.30
2022-12-18T11:57:01.190Z,113.70
2022-12-18T11:58:01.394Z,119.10
2022-12-18T11:59:01.583Z,118.80
2022-12-18T12:00:01.838Z,110.60
2022-12-18T12:01:01.929Z,114.10
2022-12-18T12:02:02.268Z,115.10
2022-12-18T12:03:02.278Z,109.40
2022-12-18T12:04:02.495Z,108.60
2022-12-18T12:05:02.591Z,111.30
2022-12-18T12:06:02.803Z,114.50
2022-12-18T12:07:03.527Z,107.40
2022-12-18T12:08:03.123Z,110.90
2022-12-18T12:09:03.333Z,115.50
2022-12-18T12:10:03.568Z,117.20
2022-12-18T12:11:03.777Z,110.40
2022-12-18T12:12:03.779Z,114.00
2022-12-18T12:13:04.003Z,120.20
2022-12-18T12:14:04.104Z,130.10
2022-12-18T12:15:04.282Z,111.40
2022-12-18T12:16:04.556Z,125.60
2022-12-18T12:17:04.632Z,112.30
2022-12-18T12:18:10.927Z,105.80
2022-12-18T12:19:05.992Z,111.40
2022-12-18T12:20:05.186Z,101.10
2022-12-18T12:21:05.443Z,108.10
2022-12-18T12:22:05.529Z,105.20
2022-12-18T12:23:05.709Z,182.90
2022-12-18T12:24:06.857Z,113.50
2022-12-18T12:25:06.055Z,107.80
2022-12-18T12:26:06.272Z,112.80
2022-12-18T12:27:06.447Z,105.10
2022-12-18T12:28:06.628Z,111.40
2022-12-18T12:29:09.203Z,115.60
2022-12-18T12:30:07.136Z,118.30
2022-12-18T12:31:07.204Z,147.10
2022-12-18T12:32:07.424Z,163.00